sensor_id;sensor_type;location;lat;lon;timestamp;P1;durP1;ratioP1;P2;durP2;ratioP2
69910;SDS011;63555;49.920;17.868;2023-05-10T00:01:34;5.55;;;2.13;;
69910;SDS011;63555;49.920;17.868;2023-05-10T00:06:35;4.33;;;1.57;;
69910;SDS011;63555;49.920;17.868;2023-05-10T00:11:35;4.53;;;1.60;;
69910;SDS011;63555;49.920;17.868;2023-05-10T00:16:35;3.83;;;1.80;;
69910;SDS011;63555;49.920;17.868;2023-05-10T00:21:36;4.83;;;2.20;;
69910;SDS011;63555;49.920;17.868;2023-05-10T00:26:36;5.37;;;2.20;;
69910;SDS011;63555;49.920;17.868;2023-05-10T00:31:36;5.43;;;2.10;;
69910;SDS011;63555;49.920;17.868;2023-05-10T00:36:37;6.83;;;2.40;;
69910;SDS011;63555;49.920;17.868;2023-05-10T00:41:37;5.07;;;2.20;;
69910;SDS011;63555;49.920;17.868;2023-05-10T00:46:37;3.80;;;1.73;;
69910;SDS011;63555;49.920;17.868;2023-05-10T00:51:38;4.13;;;2.08;;
69910;SDS011;63555;49.920;17.868;2023-05-10T00:56:38;4.93;;;2.00;;
69910;SDS011;63555;49.920;17.868;2023-05-10T01:01:40;4.75;;;2.10;;
69910;SDS011;63555;49.920;17.868;2023-05-10T01:06:41;4.22;;;2.03;;
69910;SDS011;63555;49.920;17.868;2023-05-10T01:11:42;5.43;;;2.10;;
69910;SDS011;63555;49.920;17.868;2023-05-10T01:16:42;4.10;;;1.87;;
69910;SDS011;63555;49.920;17.868;2023-05-10T01:22:30;7.28;;;2.00;;
69910;SDS011;63555;49.920;17.868;2023-05-10T01:37:59;10.35;;;2.47;;
69910;SDS011;63555;49.920;17.868;2023-05-10T01:43:08;6.28;;;2.40;;
69910;SDS011;63555;49.920;17.868;2023-05-10T01:48:14;5.25;;;2.30;;
69910;SDS011;63555;49.920;17.868;2023-05-10T01:53:17;5.30;;;2.30;;
69910;SDS011;63555;49.920;17.868;2023-05-10T01:58:21;6.40;;;2.10;;
69910;SDS011;63555;49.920;17.868;2023-05-10T02:03:25;4.50;;;2.10;;
69910;SDS011;63555;49.920;17.868;2023-05-10T02:08:27;5.90;;;2.33;;
69910;SDS011;63555;49.920;17.868;2023-05-10T02:13:29;5.75;;;2.10;;
69910;SDS011;63555;49.920;17.868;2023-05-10T02:18:33;8.57;;;2.25;;
69910;SDS011;63555;49.920;17.868;2023-05-10T02:23:36;5.03;;;2.10;;
69910;SDS011;63555;49.920;17.868;2023-05-10T02:28:37;5.88;;;1.80;;
69910;SDS011;63555;49.920;17.868;2023-05-10T02:33:40;4.43;;;2.03;;
69910;SDS011;63555;49.920;17.868;2023-05-10T02:38:43;6.03;;;2.25;;
69910;SDS011;63555;49.920;17.868;2023-05-10T02:43:46;6.15;;;2.50;;
69910;SDS011;63555;49.920;17.868;2023-05-10T02:48:48;6.07;;;2.47;;
69910;SDS011;63555;49.920;17.868;2023-05-10T02:53:48;6.53;;;2.37;;
69910;SDS011;63555;49.920;17.868;2023-05-10T02:58:51;6.78;;;2.95;;
69910;SDS011;63555;49.920;17.868;2023-05-10T03:03:52;6.82;;;2.38;;
69910;SDS011;63555;49.920;17.868;2023-05-10T03:08:52;8.13;;;2.70;;
69910;SDS011;63555;49.920;17.868;2023-05-10T03:19:47;5.90;;;2.13;;
69910;SDS011;63555;49.920;17.868;2023-05-10T03:24:53;4.57;;;1.92;;
69910;SDS011;63555;49.920;17.868;2023-05-10T03:29:56;6.45;;;2.30;;
69910;SDS011;63555;49.920;17.868;2023-05-10T03:34:58;7.82;;;2.83;;
69910;SDS011;63555;49.920;17.868;2023-05-10T03:39:58;5.97;;;2.80;;
69910;SDS011;63555;49.920;17.868;2023-05-10T03:44:58;6.00;;;2.33;;
69910;SDS011;63555;49.920;17.868;2023-05-10T03:49:59;6.17;;;2.10;;
69910;SDS011;63555;49.920;17.868;2023-05-10T03:54:59;4.87;;;1.73;;
69910;SDS011;63555;49.920;17.868;2023-05-10T03:59:59;3.77;;;1.37;;
69910;SDS011;63555;49.920;17.868;2023-05-10T04:05:00;4.17;;;1.77;;
69910;SDS011;63555;49.920;17.868;2023-05-10T04:10:01;5.90;;;2.17;;
69910;SDS011;63555;49.920;17.868;2023-05-10T04:15:01;6.13;;;2.07;;
69910;SDS011;63555;49.920;17.868;2023-05-10T04:20:02;5.37;;;2.50;;
69910;SDS011;63555;49.920;17.868;2023-05-10T04:25:03;6.75;;;2.78;;
69910;SDS011;63555;49.920;17.868;2023-05-10T04:30:04;4.83;;;2.33;;
69910;SDS011;63555;49.920;17.868;2023-05-10T04:35:05;5.35;;;2.45;;
69910;SDS011;63555;49.920;17.868;2023-05-10T04:40:07;6.67;;;2.47;;
69910;SDS011;63555;49.920;17.868;2023-05-10T04:45:08;5.47;;;2.60;;
69910;SDS011;63555;49.920;17.868;2023-05-10T04:50:09;6.85;;;3.15;;
69910;SDS011;63555;49.920;17.868;2023-05-10T04:55:09;8.50;;;3.35;;
69910;SDS011;63555;49.920;17.868;2023-05-10T05:00:10;9.52;;;3.67;;
69910;SDS011;63555;49.920;17.868;2023-05-10T05:05:12;7.65;;;3.63;;
69910;SDS011;63555;49.920;17.868;2023-05-10T05:10:13;9.10;;;4.03;;
69910;SDS011;63555;49.920;17.868;2023-05-10T05:15:13;9.43;;;4.10;;
69910;SDS011;63555;49.920;17.868;2023-05-10T05:20:15;9.73;;;4.85;;
69910;SDS011;63555;49.920;17.868;2023-05-10T05:25:15;9.40;;;4.77;;
69910;SDS011;63555;49.920;17.868;2023-05-10T05:30:16;9.10;;;4.60;;
69910;SDS011;63555;49.920;17.868;2023-05-10T05:35:16;9.18;;;4.43;;
69910;SDS011;63555;49.920;17.868;2023-05-10T05:40:17;8.37;;;4.60;;
69910;SDS011;63555;49.920;17.868;2023-05-10T05:45:17;8.43;;;4.83;;
69910;SDS011;63555;49.920;17.868;2023-05-10T05:50:17;9.37;;;4.50;;
69910;SDS011;63555;49.920;17.868;2023-05-10T05:55:18;9.90;;;4.33;;
69910;SDS011;63555;49.920;17.868;2023-05-10T06:00:18;12.87;;;4.97;;
69910;SDS011;63555;49.920;17.868;2023-05-10T06:05:19;10.73;;;5.30;;
69910;SDS011;63555;49.920;17.868;2023-05-10T06:10:20;15.37;;;4.90;;
69910;SDS011;63555;49.920;17.868;2023-05-10T06:15:20;12.93;;;5.30;;
69910;SDS011;63555;49.920;17.868;2023-05-10T06:20:20;11.70;;;4.37;;
69910;SDS011;63555;49.920;17.868;2023-05-10T06:25:21;9.63;;;4.23;;
69910;SDS011;63555;49.920;17.868;2023-05-10T06:30:21;9.50;;;3.00;;
69910;SDS011;63555;49.920;17.868;2023-05-10T06:35:27;9.35;;;3.00;;
69910;SDS011;63555;49.920;17.868;2023-05-10T06:40:28;6.30;;;2.78;;
69910;SDS011;63555;49.920;17.868;2023-05-10T06:45:28;6.57;;;3.10;;
69910;SDS011;63555;49.920;17.868;2023-05-10T06:50:30;7.23;;;3.03;;
69910;SDS011;63555;49.920;17.868;2023-05-10T06:55:30;5.47;;;2.77;;
69910;SDS011;63555;49.920;17.868;2023-05-10T07:00:31;5.50;;;2.97;;
69910;SDS011;63555;49.920;17.868;2023-05-10T07:05:31;6.67;;;2.03;;
69910;SDS011;63555;49.920;17.868;2023-05-10T07:10:32;5.20;;;2.00;;
69910;SDS011;63555;49.920;17.868;2023-05-10T07:15:33;3.63;;;2.33;;
69910;SDS011;63555;49.920;17.868;2023-05-10T07:20:33;4.53;;;1.80;;
69910;SDS011;63555;49.920;17.868;2023-05-10T07:25:33;5.33;;;2.67;;
69910;SDS011;63555;49.920;17.868;2023-05-10T07:30:34;4.83;;;2.20;;
69910;SDS011;63555;49.920;17.868;2023-05-10T07:35:34;5.83;;;2.40;;
69910;SDS011;63555;49.920;17.868;2023-05-10T07:40:35;5.32;;;2.70;;
69910;SDS011;63555;49.920;17.868;2023-05-10T07:45:36;4.13;;;2.53;;
69910;SDS011;63555;49.920;17.868;2023-05-10T07:50:36;4.77;;;2.53;;
69910;SDS011;63555;49.920;17.868;2023-05-10T07:55:36;5.83;;;2.50;;
69910;SDS011;63555;49.920;17.868;2023-05-10T08:00:37;4.13;;;2.40;;
69910;SDS011;63555;49.920;17.868;2023-05-10T08:05:39;6.35;;;2.17;;
69910;SDS011;63555;49.920;17.868;2023-05-10T08:10:39;4.03;;;1.97;;
69910;SDS011;63555;49.920;17.868;2023-05-10T08:15:40;7.17;;;2.23;;
69910;SDS011;63555;49.920;17.868;2023-05-10T08:20:40;4.77;;;2.20;;
69910;SDS011;63555;49.920;17.868;2023-05-10T08:25:41;6.60;;;2.40;;
69910;SDS011;63555;49.920;17.868;2023-05-10T08:30:41;5.17;;;2.30;;
69910;SDS011;63555;49.920;17.868;2023-05-10T08:35:41;3.30;;;1.70;;
69910;SDS011;63555;49.920;17.868;2023-05-10T08:40:42;5.60;;;2.03;;
69910;SDS011;63555;49.920;17.868;2023-05-10T08:45:44;4.55;;;2.20;;
69910;SDS011;63555;49.920;17.868;2023-05-10T08:50:47;3.60;;;2.00;;
69910;SDS011;63555;49.920;17.868;2023-05-10T08:55:50;3.30;;;1.90;;
69910;SDS011;63555;49.920;17.868;2023-05-10T09:00:51;3.13;;;1.80;;
69910;SDS011;63555;49.920;17.868;2023-05-10T09:05:51;3.23;;;1.70;;
69910;SDS011;63555;49.920;17.868;2023-05-10T09:10:52;6.30;;;2.00;;
69910;SDS011;63555;49.920;17.868;2023-05-10T09:15:52;4.47;;;2.30;;
69910;SDS011;63555;49.920;17.868;2023-05-10T09:20:54;5.60;;;1.90;;
69910;SDS011;63555;49.920;17.868;2023-05-10T09:26:04;3.67;;;2.20;;
69910;SDS011;63555;49.920;17.868;2023-05-10T09:31:05;3.40;;;2.15;;
69910;SDS011;63555;49.920;17.868;2023-05-10T09:36:06;5.83;;;1.93;;
69910;SDS011;63555;49.920;17.868;2023-05-10T09:41:14;3.20;;;1.60;;
69910;SDS011;63555;49.920;17.868;2023-05-10T09:46:16;3.60;;;2.10;;
69910;SDS011;63555;49.920;17.868;2023-05-10T09:51:20;4.27;;;2.10;;
69910;SDS011;63555;49.920;17.868;2023-05-10T09:56:34;4.30;;;1.40;;
69910;SDS011;63555;49.920;17.868;2023-05-10T10:01:35;6.10;;;1.77;;
69910;SDS011;63555;49.920;17.868;2023-05-10T10:06:37;5.33;;;1.73;;
69910;SDS011;63555;49.920;17.868;2023-05-10T10:11:38;5.55;;;2.30;;
69910;SDS011;63555;49.920;17.868;2023-05-10T10:16:39;3.30;;;1.88;;
69910;SDS011;63555;49.920;17.868;2023-05-10T10:21:39;3.73;;;1.77;;
69910;SDS011;63555;49.920;17.868;2023-05-10T10:26:40;8.37;;;2.00;;
69910;SDS011;63555;49.920;17.868;2023-05-10T10:37:12;3.50;;;2.03;;
69910;SDS011;63555;49.920;17.868;2023-05-10T10:42:12;3.95;;;1.60;;
69910;SDS011;63555;49.920;17.868;2023-05-10T10:57:32;4.55;;;1.98;;
69910;SDS011;63555;49.920;17.868;2023-05-10T11:07:52;5.38;;;1.55;;
69910;SDS011;63555;49.920;17.868;2023-05-10T11:12:59;2.30;;;1.10;;
69910;SDS011;63555;49.920;17.868;2023-05-10T11:18:20;3.27;;;1.47;;
69910;SDS011;63555;49.920;17.868;2023-05-10T11:23:23;4.53;;;1.42;;
69910;SDS011;63555;49.920;17.868;2023-05-10T11:28:23;2.90;;;1.23;;
69910;SDS011;63555;49.920;17.868;2023-05-10T11:33:24;11.83;;;2.10;;
69910;SDS011;63555;49.920;17.868;2023-05-10T11:38:24;3.13;;;1.30;;
69910;SDS011;63555;49.920;17.868;2023-05-10T11:43:25;3.27;;;1.57;;
69910;SDS011;63555;49.920;17.868;2023-05-10T11:48:30;2.47;;;1.10;;
69910;SDS011;63555;49.920;17.868;2023-05-10T11:53:31;3.13;;;1.20;;
69910;SDS011;63555;49.920;17.868;2023-05-10T11:58:32;4.32;;;1.58;;
69910;SDS011;63555;49.920;17.868;2023-05-10T12:03:33;2.40;;;1.40;;
69910;SDS011;63555;49.920;17.868;2023-05-10T12:08:34;3.95;;;1.20;;
69910;SDS011;63555;49.920;17.868;2023-05-10T12:13:38;3.80;;;1.50;;
69910;SDS011;63555;49.920;17.868;2023-05-10T12:18:40;6.00;;;1.60;;
69910;SDS011;63555;49.920;17.868;2023-05-10T12:23:41;2.40;;;1.13;;
69910;SDS011;63555;49.920;17.868;2023-05-10T12:28:42;4.33;;;1.60;;
69910;SDS011;63555;49.920;17.868;2023-05-10T12:33:43;2.70;;;1.50;;
69910;SDS011;63555;49.920;17.868;2023-05-10T12:38:45;4.63;;;1.63;;
69910;SDS011;63555;49.920;17.868;2023-05-10T12:43:48;2.40;;;1.50;;
69910;SDS011;63555;49.920;17.868;2023-05-10T12:48:48;3.07;;;1.30;;
69910;SDS011;63555;49.920;17.868;2023-05-10T12:53:54;3.33;;;1.40;;
69910;SDS011;63555;49.920;17.868;2023-05-10T12:58:55;2.83;;;1.40;;
69910;SDS011;63555;49.920;17.868;2023-05-10T13:03:55;2.63;;;1.40;;
69910;SDS011;63555;49.920;17.868;2023-05-10T13:08:56;5.20;;;1.60;;
69910;SDS011;63555;49.920;17.868;2023-05-10T13:13:57;5.25;;;1.65;;
69910;SDS011;63555;49.920;17.868;2023-05-10T13:18:58;3.90;;;1.47;;
69910;SDS011;63555;49.920;17.868;2023-05-10T13:23:58;2.30;;;1.20;;
69910;SDS011;63555;49.920;17.868;2023-05-10T13:29:00;2.50;;;1.33;;
69910;SDS011;63555;49.920;17.868;2023-05-10T13:34:00;4.00;;;2.07;;
69910;SDS011;63555;49.920;17.868;2023-05-10T13:39:01;2.97;;;1.33;;
69910;SDS011;63555;49.920;17.868;2023-05-10T13:44:03;3.47;;;1.27;;
69910;SDS011;63555;49.920;17.868;2023-05-10T13:49:03;2.67;;;1.20;;
69910;SDS011;63555;49.920;17.868;2023-05-10T13:54:04;3.63;;;1.33;;
69910;SDS011;63555;49.920;17.868;2023-05-10T13:59:04;4.67;;;1.40;;
69910;SDS011;63555;49.920;17.868;2023-05-10T14:04:05;4.13;;;1.20;;
69910;SDS011;63555;49.920;17.868;2023-05-10T14:09:06;4.45;;;1.40;;
69910;SDS011;63555;49.920;17.868;2023-05-10T14:14:06;5.37;;;1.50;;
69910;SDS011;63555;49.920;17.868;2023-05-10T14:19:07;2.90;;;1.50;;
69910;SDS011;63555;49.920;17.868;2023-05-10T14:24:08;2.50;;;1.30;;
69910;SDS011;63555;49.920;17.868;2023-05-10T14:29:08;2.47;;;1.30;;
69910;SDS011;63555;49.920;17.868;2023-05-10T14:34:09;2.90;;;1.30;;
69910;SDS011;63555;49.920;17.868;2023-05-10T14:39:09;7.57;;;1.17;;
69910;SDS011;63555;49.920;17.868;2023-05-10T14:44:12;2.50;;;1.17;;
69910;SDS011;63555;49.920;17.868;2023-05-10T14:49:13;6.07;;;1.77;;
69910;SDS011;63555;49.920;17.868;2023-05-10T14:54:13;5.37;;;1.30;;
69910;SDS011;63555;49.920;17.868;2023-05-10T14:59:13;5.23;;;2.23;;
69910;SDS011;63555;49.920;17.868;2023-05-10T15:04:14;4.03;;;1.30;;
69910;SDS011;63555;49.920;17.868;2023-05-10T15:09:16;2.33;;;1.07;;
69910;SDS011;63555;49.920;17.868;2023-05-10T15:14:16;2.70;;;1.17;;
69910;SDS011;63555;49.920;17.868;2023-05-10T15:19:17;4.53;;;1.17;;
69910;SDS011;63555;49.920;17.868;2023-05-10T15:24:17;5.00;;;1.77;;
69910;SDS011;63555;49.920;17.868;2023-05-10T15:29:18;7.82;;;2.10;;
69910;SDS011;63555;49.920;17.868;2023-05-10T15:34:19;6.20;;;2.30;;
69910;SDS011;63555;49.920;17.868;2023-05-10T15:39:20;5.10;;;1.97;;
69910;SDS011;63555;49.920;17.868;2023-05-10T15:44:20;4.90;;;1.53;;
69910;SDS011;63555;49.920;17.868;2023-05-10T15:49:20;4.83;;;1.30;;
69910;SDS011;63555;49.920;17.868;2023-05-10T15:54:21;2.37;;;1.00;;
69910;SDS011;63555;49.920;17.868;2023-05-10T15:59:21;3.13;;;1.67;;
69910;SDS011;63555;49.920;17.868;2023-05-10T16:04:22;4.78;;;2.00;;
69910;SDS011;63555;49.920;17.868;2023-05-10T16:09:22;4.20;;;1.33;;
69910;SDS011;63555;49.920;17.868;2023-05-10T16:14:23;3.63;;;1.70;;
69910;SDS011;63555;49.920;17.868;2023-05-10T16:19:23;6.73;;;1.50;;
69910;SDS011;63555;49.920;17.868;2023-05-10T16:24:24;3.00;;;1.43;;
69910;SDS011;63555;49.920;17.868;2023-05-10T16:29:25;2.97;;;1.20;;
69910;SDS011;63555;49.920;17.868;2023-05-10T16:34:25;3.10;;;1.43;;
69910;SDS011;63555;49.920;17.868;2023-05-10T16:39:26;4.73;;;1.70;;
69910;SDS011;63555;49.920;17.868;2023-05-10T16:44:26;5.00;;;1.60;;
69910;SDS011;63555;49.920;17.868;2023-05-10T16:49:27;3.10;;;1.50;;
69910;SDS011;63555;49.920;17.868;2023-05-10T16:54:28;5.97;;;1.50;;
69910;SDS011;63555;49.920;17.868;2023-05-10T16:59:28;3.50;;;1.60;;
69910;SDS011;63555;49.920;17.868;2023-05-10T17:04:28;4.83;;;2.27;;
69910;SDS011;63555;49.920;17.868;2023-05-10T17:09:29;4.13;;;1.60;;
69910;SDS011;63555;49.920;17.868;2023-05-10T17:14:30;4.43;;;1.70;;
69910;SDS011;63555;49.920;17.868;2023-05-10T17:19:30;3.23;;;1.60;;
69910;SDS011;63555;49.920;17.868;2023-05-10T17:24:30;3.03;;;1.57;;
69910;SDS011;63555;49.920;17.868;2023-05-10T17:29:31;3.65;;;1.60;;
69910;SDS011;63555;49.920;17.868;2023-05-10T17:34:32;6.57;;;2.20;;
69910;SDS011;63555;49.920;17.868;2023-05-10T17:39:32;6.47;;;2.93;;
69910;SDS011;63555;49.920;17.868;2023-05-10T17:44:33;4.67;;;1.70;;
69910;SDS011;63555;49.920;17.868;2023-05-10T17:49:33;6.67;;;2.07;;
69910;SDS011;63555;49.920;17.868;2023-05-10T17:54:33;7.90;;;1.97;;
69910;SDS011;63555;49.920;17.868;2023-05-10T17:59:34;4.17;;;2.00;;
69910;SDS011;63555;49.920;17.868;2023-05-10T18:04:34;4.00;;;1.37;;
69910;SDS011;63555;49.920;17.868;2023-05-10T18:09:35;5.03;;;1.20;;
69910;SDS011;63555;49.920;17.868;2023-05-10T18:14:35;4.40;;;1.30;;
69910;SDS011;63555;49.920;17.868;2023-05-10T18:19:35;2.90;;;1.40;;
69910;SDS011;63555;49.920;17.868;2023-05-10T18:24:36;3.80;;;1.70;;
69910;SDS011;63555;49.920;17.868;2023-05-10T18:29:36;6.27;;;1.70;;
69910;SDS011;63555;49.920;17.868;2023-05-10T18:34:37;3.20;;;1.70;;
69910;SDS011;63555;49.920;17.868;2023-05-10T18:39:37;3.57;;;1.50;;
69910;SDS011;63555;49.920;17.868;2023-05-10T18:44:37;8.03;;;1.97;;
69910;SDS011;63555;49.920;17.868;2023-05-10T18:49:38;5.10;;;2.30;;
69910;SDS011;63555;49.920;17.868;2023-05-10T18:54:38;3.30;;;1.53;;
69910;SDS011;63555;49.920;17.868;2023-05-10T18:59:38;3.43;;;1.80;;
69910;SDS011;63555;49.920;17.868;2023-05-10T19:04:39;4.50;;;1.67;;
69910;SDS011;63555;49.920;17.868;2023-05-10T19:09:39;3.30;;;1.60;;
69910;SDS011;63555;49.920;17.868;2023-05-10T19:14:40;4.18;;;2.10;;
69910;SDS011;63555;49.920;17.868;2023-05-10T19:19:40;3.87;;;1.57;;
69910;SDS011;63555;49.920;17.868;2023-05-10T19:24:40;4.63;;;1.90;;
69910;SDS011;63555;49.920;17.868;2023-05-10T19:29:41;4.97;;;2.17;;
69910;SDS011;63555;49.920;17.868;2023-05-10T19:34:41;4.00;;;1.60;;
69910;SDS011;63555;49.920;17.868;2023-05-10T19:39:41;6.13;;;2.70;;
69910;SDS011;63555;49.920;17.868;2023-05-10T19:44:42;5.40;;;2.40;;
69910;SDS011;63555;49.920;17.868;2023-05-10T19:49:43;7.00;;;2.70;;
69910;SDS011;63555;49.920;17.868;2023-05-10T19:54:43;5.40;;;2.70;;
69910;SDS011;63555;49.920;17.868;2023-05-10T19:59:44;6.07;;;2.50;;
69910;SDS011;63555;49.920;17.868;2023-05-10T20:04:44;3.80;;;2.00;;
69910;SDS011;63555;49.920;17.868;2023-05-10T20:09:45;5.47;;;2.00;;
69910;SDS011;63555;49.920;17.868;2023-05-10T20:14:45;4.68;;;2.17;;
69910;SDS011;63555;49.920;17.868;2023-05-10T20:19:45;6.93;;;2.47;;
69910;SDS011;63555;49.920;17.868;2023-05-10T20:24:46;6.27;;;3.27;;
69910;SDS011;63555;49.920;17.868;2023-05-10T20:29:47;4.32;;;2.20;;
69910;SDS011;63555;49.920;17.868;2023-05-10T20:34:47;4.73;;;2.47;;
69910;SDS011;63555;49.920;17.868;2023-05-10T20:39:48;5.10;;;2.30;;
69910;SDS011;63555;49.920;17.868;2023-05-10T20:44:48;4.43;;;2.10;;
69910;SDS011;63555;49.920;17.868;2023-05-10T20:49:49;5.20;;;2.37;;
69910;SDS011;63555;49.920;17.868;2023-05-10T20:54:50;5.70;;;2.40;;
69910;SDS011;63555;49.920;17.868;2023-05-10T20:59:50;3.73;;;2.20;;
69910;SDS011;63555;49.920;17.868;2023-05-10T21:04:50;7.83;;;2.70;;
69910;SDS011;63555;49.920;17.868;2023-05-10T21:09:51;6.13;;;2.70;;
69910;SDS011;63555;49.920;17.868;2023-05-10T21:14:51;6.63;;;2.53;;
69910;SDS011;63555;49.920;17.868;2023-05-10T21:19:52;5.03;;;2.60;;
69910;SDS011;63555;49.920;17.868;2023-05-10T21:24:52;5.13;;;2.37;;
69910;SDS011;63555;49.920;17.868;2023-05-10T21:29:52;6.93;;;2.73;;
69910;SDS011;63555;49.920;17.868;2023-05-10T21:34:53;5.47;;;2.43;;
69910;SDS011;63555;49.920;17.868;2023-05-10T21:39:53;6.13;;;2.13;;
69910;SDS011;63555;49.920;17.868;2023-05-10T21:44:53;5.53;;;2.60;;
69910;SDS011;63555;49.920;17.868;2023-05-10T21:49:54;4.07;;;2.20;;
69910;SDS011;63555;49.920;17.868;2023-05-10T21:54:54;5.90;;;1.90;;
69910;SDS011;63555;49.920;17.868;2023-05-10T21:59:55;3.40;;;1.87;;
69910;SDS011;63555;49.920;17.868;2023-05-10T22:04:55;3.57;;;1.70;;
69910;SDS011;63555;49.920;17.868;2023-05-10T22:09:55;3.63;;;2.10;;
69910;SDS011;63555;49.920;17.868;2023-05-10T22:14:56;4.77;;;1.67;;
69910;SDS011;63555;49.920;17.868;2023-05-10T22:19:56;3.67;;;1.90;;
69910;SDS011;63555;49.920;17.868;2023-05-10T22:24:56;4.97;;;1.80;;
69910;SDS011;63555;49.920;17.868;2023-05-10T22:29:57;3.90;;;1.70;;
69910;SDS011;63555;49.920;17.868;2023-05-10T22:34:57;3.77;;;1.90;;
69910;SDS011;63555;49.920;17.868;2023-05-10T22:39:58;3.37;;;1.70;;
69910;SDS011;63555;49.920;17.868;2023-05-10T22:44:58;4.30;;;2.10;;
69910;SDS011;63555;49.920;17.868;2023-05-10T22:49:58;3.85;;;1.80;;
69910;SDS011;63555;49.920;17.868;2023-05-10T22:55:02;4.50;;;2.42;;
69910;SDS011;63555;49.920;17.868;2023-05-10T23:00:02;5.00;;;2.30;;
69910;SDS011;63555;49.920;17.868;2023-05-10T23:05:04;4.28;;;2.25;;
69910;SDS011;63555;49.920;17.868;2023-05-10T23:10:06;5.00;;;1.80;;
69910;SDS011;63555;49.920;17.868;2023-05-10T23:15:07;5.50;;;2.10;;
69910;SDS011;63555;49.920;17.868;2023-05-10T23:20:08;4.50;;;2.10;;
69910;SDS011;63555;49.920;17.868;2023-05-10T23:25:09;5.38;;;1.90;;
69910;SDS011;63555;49.920;17.868;2023-05-10T23:30:09;4.10;;;2.00;;
69910;SDS011;63555;49.920;17.868;2023-05-10T23:35:10;3.83;;;2.07;;
69910;SDS011;63555;49.920;17.868;2023-05-10T23:40:10;3.93;;;2.00;;
69910;SDS011;63555;49.920;17.868;2023-05-10T23:45:12;3.63;;;2.08;;
69910;SDS011;63555;49.920;17.868;2023-05-10T23:50:12;4.63;;;2.30;;
69910;SDS011;63555;49.920;17.868;2023-05-10T23:55:13;3.33;;;1.80;;
